Time;durP1;ratioP1;P1;durP2;ratioP2;P2;SDS_P1;SDS_P2;PMS_P1;PMS_P2;Temp;Humidity;BMP_temperature;BMP_pressure;BME280_temperature;BME280_humidity;BME280_pressure;Samples;Min_cycle;Max_cycle;Signal;HPM_P1;HPM_P2
2022/12/20 01:07:17;;;;;;;393.17;373.90;;;8.20;99.90;;;;;;5106837;27;20460;-50
2022/12/20 01:09:42;;;;;;;437.10;414.30;;;8.20;99.90;;;;;;5066927;28;20386;-55
2022/12/20 01:12:08;;;;;;;342.70;325.00;;;8.20;99.90;;;;;;5065145;28;20461;-65
2022/12/20 01:14:33;;;;;;;285.25;270.50;;;8.20;99.90;;;;;;5065333;28;20482;-65
2022/12/20 01:16:59;;;;;;;412.03;390.57;;;8.30;99.90;;;;;;5083753;28;20511;-66
2022/12/20 01:19:26;;;;;;;402.20;380.90;;;8.20;99.90;;;;;;5083983;28;20400;-65
2022/12/20 01:21:52;;;;;;;415.00;392.80;;;8.20;99.90;;;;;;5066795;28;20452;-66
2022/12/20 01:24:19;;;;;;;410.80;388.98;;;8.20;99.90;;;;;;5068149;28;20383;-66
2022/12/20 01:26:45;;;;;;;400.88;379.17;;;8.30;99.90;;;;;;5068305;28;20398;-66
2022/12/20 01:29:12;;;;;;;390.38;369.85;;;8.20;99.90;;;;;;5068314;28;20371;-66
2022/12/20 01:31:39;;;;;;;410.20;388.17;;;8.30;99.90;;;;;;5068085;28;20375;-66
2022/12/20 01:34:05;;;;;;;385.42;365.27;;;8.30;99.90;;;;;;5067735;28;20842;-66
2022/12/20 01:36:34;;;;;;;384.02;363.95;;;8.30;99.90;;;;;;5067858;28;20401;-66
2022/12/20 01:39:07;;;;;;;378.00;357.80;;;8.30;99.90;;;;;;5069795;28;20401;-66
2022/12/20 01:41:34;;;;;;;382.27;361.80;;;8.30;99.90;;;;;;5068688;28;20698;-66
2022/12/20 01:44:04;;;;;;;374.65;354.73;;;8.30;99.90;;;;;;5068642;28;20375;-66
2022/12/20 01:46:33;;;;;;;388.08;367.17;;;8.30;99.90;;;;;;5068877;28;20427;-66
2022/12/20 01:49:25;;;;;;;384.15;363.63;;;8.30;99.90;;;;;;5068632;28;20535;-66
2022/12/20 01:52:01;;;;;;;372.20;352.65;;;8.30;99.90;;;;;;5067549;28;20387;-65
2022/12/20 01:54:34;;;;;;;380.05;359.92;;;8.30;99.90;;;;;;5087641;28;20386;-65
2022/12/20 01:57:03;;;;;;;349.23;330.45;;;8.30;99.90;;;;;;5068467;28;20383;-65
2022/12/20 01:59:30;;;;;;;360.23;340.98;;;8.40;99.90;;;;;;5069034;28;20771;-65
2022/12/20 02:02:00;;;;;;;359.65;340.42;;;8.40;99.90;;;;;;5069991;28;20478;-65
2022/12/20 02:04:26;;;;;;;375.52;355.13;;;8.40;99.90;;;;;;5085284;28;20383;-65
2022/12/20 02:06:51;;;;;;;382.03;361.43;;;8.50;99.90;;;;;;5061820;28;20571;-65
2022/12/20 02:09:17;;;;;;;363.73;344.05;;;8.50;99.90;;;;;;5061926;28;20460;-66
2022/12/20 02:11:52;;;;;;;368.43;348.60;;;8.50;99.90;;;;;;5063080;28;20791;-65
2022/12/20 02:14:39;;;;;;;368.65;348.80;;;8.50;99.90;;;;;;5063131;28;20412;-66
2022/12/20 02:17:25;;;;;;;387.05;366.00;;;8.60;99.90;;;;;;5056219;28;20762;-65
2022/12/20 02:20:33;;;;;;;376.20;355.85;;;8.60;99.90;;;;;;5049863;28;20478;-65
2022/12/20 02:23:18;;;;;;;381.83;361.15;;;8.60;99.90;;;;;;5052727;28;20396;-65
2022/12/20 02:26:02;;;;;;;368.52;348.33;;;8.70;99.90;;;;;;5053660;28;20409;-65
2022/12/20 02:28:48;;;;;;;352.37;333.27;;;8.70;99.90;;;;;;5051519;28;20396;-65
2022/12/20 02:31:17;;;;;;;354.70;335.77;;;8.70;99.90;;;;;;5052661;28;20687;-65
2022/12/20 02:33:46;;;;;;;343.00;324.65;;;8.70;99.90;;;;;;5051942;28;20377;-65
2022/12/20 02:36:15;;;;;;;335.60;318.02;;;8.80;99.90;;;;;;5052661;28;20401;-66
2022/12/20 02:38:41;;;;;;;319.40;302.27;;;8.80;99.90;;;;;;5051725;28;20393;-65
2022/12/20 02:41:15;;;;;;;331.13;313.10;;;8.90;99.90;;;;;;5050534;28;20739;-65
2022/12/20 02:46:30;;;;;;;320.42;303.05;;;8.90;99.90;;;;;;5051613;28;20705;-65
2022/12/20 02:49:03;;;;;;;343.17;324.52;;;8.90;99.90;;;;;;5051210;28;20374;-65
2022/12/20 02:51:30;;;;;;;339.08;320.88;;;9.00;99.90;;;;;;5053335;28;20397;-65
2022/12/20 02:53:57;;;;;;;334.63;316.10;;;9.00;99.90;;;;;;5054464;28;20757;-66
2022/12/20 02:56:33;;;;;;;327.17;309.43;;;9.00;99.90;;;;;;5053660;28;20382;-65
2022/12/20 02:59:03;;;;;;;333.25;315.60;;;9.00;99.90;;;;;;5055683;28;20417;-65
2022/12/20 03:01:33;;;;;;;324.83;307.15;;;9.00;99.90;;;;;;5054976;28;20721;-65
2022/12/20 03:04:00;;;;;;;355.17;335.73;;;9.10;99.90;;;;;;5053664;28;20389;-65
2022/12/20 03:06:28;;;;;;;324.60;307.02;;;9.20;99.90;;;;;;5054278;28;20421;-65
2022/12/20 03:08:53;;;;;;;334.77;316.83;;;9.20;99.90;;;;;;5054372;28;20661;-65
2022/12/20 03:11:19;;;;;;;327.07;309.13;;;9.30;99.90;;;;;;5052349;28;20468;-66
2022/12/20 03:13:45;;;;;;;319.87;302.70;;;9.30;99.90;;;;;;5051370;28;20427;-65
2022/12/20 03:16:11;;;;;;;307.00;290.30;;;9.20;99.90;;;;;;5051755;28;20378;-65
2022/12/20 03:18:36;;;;;;;322.35;305.00;;;9.30;99.90;;;;;;5050101;28;20393;-65
2022/12/20 03:21:02;;;;;;;310.17;293.13;;;9.40;99.90;;;;;;5050444;28;20397;-65
2022/12/20 03:23:28;;;;;;;299.52;283.77;;;9.40;99.90;;;;;;5051225;28;20484;-65
2022/12/20 03:25:54;;;;;;;283.25;268.13;;;9.40;99.90;;;;;;5052387;28;20941;-66
2022/12/20 03:28:20;;;;;;;299.08;282.83;;;9.40;99.90;;;;;;5051014;28;20661;-66
2022/12/20 03:30:45;;;;;;;291.33;275.83;;;9.40;99.90;;;;;;5050743;28;20381;-65
2022/12/20 03:33:11;;;;;;;267.60;253.13;;;9.40;99.90;;;;;;5050685;28;20377;-65
2022/12/20 03:35:37;;;;;;;288.53;273.00;;;9.40;99.90;;;;;;5051068;28;20416;-65
2022/12/20 03:38:02;;;;;;;260.47;246.40;;;9.40;99.90;;;;;;5051372;28;21023;-66
2022/12/20 03:40:28;;;;;;;265.75;251.45;;;9.40;99.90;;;;;;5052508;28;20807;-65
2022/12/20 03:42:55;;;;;;;278.83;263.65;;;9.40;99.90;;;;;;5050728;28;20676;-65
2022/12/20 03:45:20;;;;;;;276.85;261.70;;;9.40;99.90;;;;;;5052794;28;20551;-66
2022/12/20 03:47:46;;;;;;;272.37;257.80;;;9.40;99.90;;;;;;5053154;28;20401;-65
2022/12/20 03:50:11;;;;;;;277.80;262.87;;;9.40;99.90;;;;;;5052614;28;20430;-65
2022/12/20 03:52:37;;;;;;;289.85;274.42;;;9.40;99.90;;;;;;5051159;28;20397;-65
2022/12/20 03:55:03;;;;;;;278.42;263.50;;;9.40;99.90;;;;;;5049988;28;20390;-65
2022/12/20 03:57:29;;;;;;;261.13;247.20;;;9.40;99.90;;;;;;5052061;28;20388;-65
2022/12/20 03:59:59;;;;;;;272.52;257.73;;;9.40;99.90;;;;;;5052706;28;20389;-65
2022/12/20 04:02:24;;;;;;;272.40;257.73;;;9.50;99.90;;;;;;5053383;28;20388;-65
2022/12/20 04:04:50;;;;;;;286.60;271.15;;;9.50;99.90;;;;;;5052986;28;20385;-65
2022/12/20 04:07:16;;;;;;;264.63;250.55;;;9.60;99.90;;;;;;5056457;28;20423;-65
2022/12/20 04:09:42;;;;;;;237.13;224.38;;;9.60;99.90;;;;;;5073932;28;20415;-65
2022/12/20 04:12:08;;;;;;;247.20;233.95;;;9.60;99.90;;;;;;5055586;28;20450;-65
2022/12/20 04:14:34;;;;;;;226.98;214.60;;;9.60;99.90;;;;;;5054617;28;20383;-65
2022/12/20 04:17:00;;;;;;;231.53;218.93;;;9.70;99.90;;;;;;5054714;28;20753;-65
2022/12/20 04:19:26;;;;;;;227.37;214.87;;;9.70;99.90;;;;;;5072424;28;20380;-65
2022/12/20 04:21:51;;;;;;;210.40;198.80;;;9.70;99.90;;;;;;5053857;28;20400;-65
2022/12/20 04:24:17;;;;;;;219.88;207.95;;;9.70;99.90;;;;;;5053261;28;20400;-65
2022/12/20 04:26:42;;;;;;;214.95;203.10;;;9.70;99.90;;;;;;5055059;28;20911;-65
2022/12/20 04:32:30;;;;;;;208.95;197.40;;;9.70;99.90;;;;;;5073186;28;20355;-65
2022/12/20 04:34:56;;;;;;;193.83;183.03;;;9.70;99.90;;;;;;5055239;28;20384;-66
2022/12/20 04:37:21;;;;;;;186.97;176.27;;;9.70;99.90;;;;;;5055585;28;20656;-65
2022/12/20 04:39:47;;;;;;;190.53;179.93;;;9.70;99.90;;;;;;5073287;28;20530;-65
2022/12/20 04:42:12;;;;;;;185.63;175.23;;;9.70;99.90;;;;;;5055040;28;20391;-65
2022/12/20 04:44:38;;;;;;;203.23;191.87;;;9.60;99.90;;;;;;5054178;28;20427;-66
2022/12/20 04:47:04;;;;;;;193.37;182.77;;;9.60;99.90;;;;;;5055354;28;20403;-65
2022/12/20 04:49:30;;;;;;;201.50;190.43;;;9.60;99.90;;;;;;5054631;28;20420;-65
2022/12/20 04:53:46;;;;;;;180.10;170.02;;;9.60;99.90;;;;;;5053287;28;20821;-65
2022/12/20 04:54:41;;;;;;;183.32;173.35;;;9.60;99.90;;;;;;5069209;28;20668;-65
2022/12/20 04:57:08;;;;;;;190.70;179.90;;;9.60;99.90;;;;;;5051305;28;20395;-65
2022/12/20 04:59:34;;;;;;;185.63;175.23;;;9.50;99.90;;;;;;5050762;28;20674;-65
2022/12/20 05:02:00;;;;;;;221.40;209.13;;;9.50;99.90;;;;;;5049835;28;20835;-65
2022/12/20 05:04:25;;;;;;;236.33;223.30;;;9.50;99.90;;;;;;5050195;28;20387;-65
2022/12/20 05:06:51;;;;;;;243.30;229.90;;;9.50;99.90;;;;;;5049732;28;20527;-65
2022/12/20 05:09:16;;;;;;;265.90;251.07;;;9.50;99.90;;;;;;5068441;28;20672;-65
2022/12/20 05:11:42;;;;;;;292.97;276.90;;;9.50;99.90;;;;;;5049483;28;20415;-65
2022/12/20 05:14:08;;;;;;;307.57;291.07;;;9.40;99.90;;;;;;5067592;28;20508;-66
2022/12/20 05:16:33;;;;;;;308.75;292.20;;;9.50;99.90;;;;;;5049614;28;20426;-65
2022/12/20 05:18:59;;;;;;;337.10;319.00;;;9.50;99.90;;;;;;5050286;28;20398;-65
2022/12/20 05:26:53;;;;;;;347.10;328.63;;;9.40;99.90;;;;;;5066860;28;20929;-64
2022/12/20 05:29:18;;;;;;;342.83;324.38;;;9.40;99.90;;;;;;5067616;28;20384;-64
2022/12/20 05:31:44;;;;;;;336.37;318.20;;;9.40;99.90;;;;;;5048199;28;20384;-65
2022/12/20 05:34:10;;;;;;;350.50;331.43;;;9.30;99.90;;;;;;5049318;28;20523;-64
2022/12/20 05:36:35;;;;;;;343.47;325.10;;;9.30;99.90;;;;;;5048585;28;20454;-65
2022/12/20 05:39:01;;;;;;;337.67;319.40;;;9.30;99.90;;;;;;5048741;28;20380;-65
2022/12/20 05:41:26;;;;;;;360.67;341.33;;;9.30;99.90;;;;;;5047082;28;20398;-65
2022/12/20 05:43:52;;;;;;;369.63;350.00;;;9.30;99.90;;;;;;5045618;28;20415;-65
2022/12/20 05:46:17;;;;;;;373.65;353.92;;;9.30;99.90;;;;;;5061173;28;20407;-65
2022/12/20 05:48:43;;;;;;;357.92;338.50;;;9.30;99.90;;;;;;5045920;28;20382;-64
2022/12/20 05:51:08;;;;;;;367.47;347.87;;;9.20;99.90;;;;;;5046548;28;20487;-64
2022/12/20 05:53:34;;;;;;;360.42;341.08;;;9.20;99.90;;;;;;5048331;28;20672;-65
2022/12/20 05:56:00;;;;;;;348.52;329.80;;;9.20;99.90;;;;;;5045949;28;20671;-64
2022/12/20 05:58:26;;;;;;;355.58;336.48;;;9.20;99.90;;;;;;5047851;28;20409;-64
2022/12/20 06:00:52;;;;;;;340.60;322.52;;;9.20;99.90;;;;;;5047768;28;20390;-65
2022/12/20 06:03:17;;;;;;;331.95;314.23;;;9.20;99.90;;;;;;5048011;28;20392;-64
2022/12/20 06:05:44;;;;;;;350.73;332.03;;;9.20;99.90;;;;;;5046996;28;20423;-64
2022/12/20 06:08:10;;;;;;;361.02;341.80;;;9.20;99.90;;;;;;5047632;28;20436;-65
2022/12/20 06:10:38;;;;;;;350.45;331.60;;;9.20;99.90;;;;;;5048461;28;20641;-64
2022/12/20 06:13:06;;;;;;;355.73;336.85;;;9.20;99.90;;;;;;5067860;28;20400;-64
2022/12/20 06:15:32;;;;;;;369.15;349.52;;;9.20;99.90;;;;;;5067914;28;20479;-65
2022/12/20 06:17:57;;;;;;;352.23;333.30;;;9.20;99.90;;;;;;5068836;28;20470;-65
2022/12/20 06:20:23;;;;;;;365.15;345.50;;;9.20;99.90;;;;;;5051875;28;20415;-65
2022/12/20 06:22:49;;;;;;;368.20;348.33;;;9.20;99.90;;;;;;5070261;28;20704;-64
2022/12/20 06:25:15;;;;;;;379.37;358.97;;;9.20;99.90;;;;;;5072516;28;20388;-65
2022/12/20 06:27:41;;;;;;;371.48;351.50;;;9.20;99.90;;;;;;5051626;28;20734;-64
2022/12/20 06:30:08;;;;;;;382.83;362.13;;;9.20;99.90;;;;;;5067423;28;20459;-64
2022/12/20 06:32:34;;;;;;;401.05;379.08;;;9.20;99.90;;;;;;5049135;28;20474;-64
2022/12/20 06:35:00;;;;;;;405.10;382.55;;;9.30;99.90;;;;;;5068416;28;20537;-65
2022/12/20 06:37:25;;;;;;;430.52;407.05;;;9.30;99.90;;;;;;5050287;28;20388;-64
2022/12/20 06:39:51;;;;;;;438.48;414.75;;;9.30;99.90;;;;;;5049029;28;20691;-64
2022/12/20 06:42:16;;;;;;;421.70;398.73;;;9.30;99.90;;;;;;5047926;28;20663;-65
2022/12/20 06:44:42;;;;;;;426.13;402.97;;;9.40;99.90;;;;;;5047167;28;20395;-65
2022/12/20 06:47:07;;;;;;;429.85;406.48;;;9.40;99.90;;;;;;5047317;28;20404;-66
2022/12/20 06:49:33;;;;;;;404.17;382.73;;;9.40;99.90;;;;;;5046352;28;20734;-65
2022/12/20 06:51:58;;;;;;;399.38;377.80;;;9.40;99.90;;;;;;5047868;28;20730;-65
2022/12/20 06:54:24;;;;;;;384.67;364.20;;;9.30;99.90;;;;;;5048298;28;20387;-64
2022/12/20 06:56:49;;;;;;;419.63;396.53;;;9.40;99.90;;;;;;5066400;28;20400;-65
2022/12/20 06:59:15;;;;;;;430.88;407.50;;;9.30;99.90;;;;;;5048278;28;20379;-65
2022/12/20 07:01:41;;;;;;;426.92;403.63;;;9.30;99.90;;;;;;5046232;28;20446;-64
2022/12/20 07:04:07;;;;;;;432.27;408.63;;;9.30;99.90;;;;;;5046013;28;20853;-65
2022/12/20 07:06:32;;;;;;;415.55;393.08;;;9.30;99.90;;;;;;5045692;28;20430;-65
2022/12/20 07:08:58;;;;;;;408.20;386.00;;;9.30;99.90;;;;;;5043843;28;20376;-65
2022/12/20 07:11:24;;;;;;;419.95;397.20;;;9.30;99.90;;;;;;5044324;28;20383;-64
2022/12/20 07:13:54;;;;;;;417.33;395.00;;;9.30;99.90;;;;;;5060979;28;21123;-65
2022/12/20 07:16:20;;;;;;;412.45;390.00;;;9.30;99.90;;;;;;5041947;28;20391;-65
2022/12/20 07:18:49;;;;;;;437.43;413.83;;;9.30;99.90;;;;;;5040602;28;20789;-64
2022/12/20 07:21:16;;;;;;;421.95;399.15;;;9.30;99.90;;;;;;5041041;28;20396;-65
2022/12/20 07:23:41;;;;;;;423.40;400.47;;;9.20;99.90;;;;;;5040470;28;20410;-64
2022/12/20 07:26:08;;;;;;;413.03;390.50;;;9.20;99.90;;;;;;5056890;28;20520;-64
2022/12/20 07:28:34;;;;;;;434.48;410.70;;;9.20;99.90;;;;;;5036894;28;20728;-65
2022/12/20 07:31:01;;;;;;;433.63;409.90;;;9.20;99.90;;;;;;5056843;28;20466;-65
2022/12/20 07:33:27;;;;;;;415.07;392.47;;;9.20;99.90;;;;;;5039992;28;20735;-65
2022/12/20 07:35:59;;;;;;;431.97;408.57;;;9.20;99.90;;;;;;5042252;28;20396;-64
2022/12/20 07:38:25;;;;;;;418.63;396.13;;;9.30;99.90;;;;;;5038470;28;20395;-65
2022/12/20 07:40:50;;;;;;;427.83;404.52;;;9.30;99.90;;;;;;5038963;28;20446;-64
2022/12/20 07:43:16;;;;;;;425.07;401.87;;;9.20;99.90;;;;;;5039231;28;20796;-65
2022/12/20 07:45:41;;;;;;;440.83;416.75;;;9.20;99.90;;;;;;5041099;28;20564;-65
2022/12/20 07:48:07;;;;;;;443.17;418.80;;;9.20;99.90;;;;;;5041297;28;20718;-64
2022/12/20 07:50:34;;;;;;;435.70;412.00;;;9.20;99.90;;;;;;5039490;28;20406;-65
2022/12/20 07:53:00;;;;;;;414.20;391.48;;;9.20;99.90;;;;;;5057230;28;20380;-64
2022/12/20 07:55:28;;;;;;;414.70;392.17;;;9.20;99.90;;;;;;5039700;28;20660;-64
2022/12/20 07:58:00;;;;;;;414.67;392.23;;;9.20;99.90;;;;;;5040556;28;20384;-64
2022/12/20 08:00:25;;;;;;;430.77;407.42;;;9.20;99.90;;;;;;5040563;28;20656;-64
2022/12/20 08:03:04;;;;;;;419.20;396.25;;;9.20;99.90;;;;;;5039270;28;20666;-65
2022/12/20 08:05:31;;;;;;;434.53;411.13;;;9.20;99.90;;;;;;5039070;28;20545;-64
2022/12/20 08:07:58;;;;;;;448.40;424.08;;;9.20;99.90;;;;;;5040846;28;20383;-64
2022/12/20 08:10:24;;;;;;;445.13;420.77;;;9.20;99.90;;;;;;5038698;28;20535;-64
2022/12/20 08:12:50;;;;;;;445.20;420.98;;;9.20;99.90;;;;;;5038282;28;20388;-64
2022/12/20 08:15:16;;;;;;;450.95;426.50;;;9.20;99.90;;;;;;5042027;28;20383;-64
2022/12/20 08:17:42;;;;;;;465.15;439.65;;;9.20;99.90;;;;;;5039162;28;20391;-64
2022/12/20 08:20:07;;;;;;;454.50;429.77;;;9.20;99.90;;;;;;5037390;28;20548;-64
2022/12/20 08:22:33;;;;;;;468.52;443.23;;;9.20;99.90;;;;;;5041634;28;20687;-65
2022/12/20 08:24:59;;;;;;;449.85;425.10;;;9.20;99.90;;;;;;5041420;28;20379;-65
2022/12/20 08:27:25;;;;;;;434.42;410.55;;;9.20;99.90;;;;;;5039254;28;20752;-65
2022/12/20 08:29:50;;;;;;;444.88;420.88;;;9.20;99.90;;;;;;5053506;28;20913;-65
2022/12/20 08:32:16;;;;;;;434.80;411.25;;;9.20;99.90;;;;;;5034657;28;20394;-65
2022/12/20 08:34:42;;;;;;;405.83;383.70;;;9.20;99.90;;;;;;5034947;28;20414;-65
2022/12/20 08:37:07;;;;;;;412.33;390.57;;;9.20;99.90;;;;;;5035269;28;20412;-65
2022/12/20 08:39:33;;;;;;;411.45;389.00;;;9.20;99.90;;;;;;5051566;28;20771;-65
2022/12/20 08:41:58;;;;;;;393.87;372.60;;;9.20;99.90;;;;;;5034206;28;20395;-65
2022/12/20 08:44:24;;;;;;;371.83;352.47;;;9.20;99.90;;;;;;5036453;28;20452;-64
2022/12/20 08:46:50;;;;;;;386.23;365.55;;;9.20;99.90;;;;;;5038636;28;20410;-65
2022/12/20 08:49:16;;;;;;;404.90;383.35;;;9.20;99.90;;;;;;5057342;28;20375;-64
2022/12/20 08:51:42;;;;;;;372.87;352.93;;;9.30;99.90;;;;;;5038649;28;20555;-64
2022/12/20 08:54:07;;;;;;;380.20;360.10;;;9.30;99.90;;;;;;5037712;28;20540;-64
2022/12/20 08:56:33;;;;;;;380.58;360.15;;;9.30;99.90;;;;;;5037087;28;20586;-65
2022/12/20 08:58:58;;;;;;;362.55;343.63;;;9.30;99.90;;;;;;5035890;28;20387;-64
2022/12/20 09:01:25;;;;;;;362.60;343.37;;;9.30;99.90;;;;;;5034733;28;20380;-64
2022/12/20 09:03:51;;;;;;;353.15;334.42;;;9.30;99.90;;;;;;5031743;28;20655;-64
2022/12/20 09:06:20;;;;;;;328.67;311.33;;;9.40;99.90;;;;;;5029538;28;20456;-65
2022/12/20 09:08:46;;;;;;;317.95;301.13;;;9.40;99.90;;;;;;5028377;28;20664;-65
2022/12/20 09:11:18;;;;;;;317.17;300.00;;;9.40;99.90;;;;;;5026345;28;20621;-65
2022/12/20 09:13:45;;;;;;;309.13;292.98;;;9.50;99.90;;;;;;5028089;28;20385;-65
2022/12/20 09:16:14;;;;;;;332.42;314.92;;;9.50;99.90;;;;;;5028485;28;20998;-65
2022/12/20 09:18:40;;;;;;;347.00;328.67;;;9.60;99.90;;;;;;5029825;28;20447;-65
2022/12/20 09:21:06;;;;;;;344.15;325.92;;;9.60;99.90;;;;;;5031805;28;20408;-65
2022/12/20 09:23:34;;;;;;;330.73;313.23;;;9.60;99.90;;;;;;5031517;28;20394;-65
2022/12/20 09:26:17;;;;;;;350.15;331.92;;;9.60;99.90;;;;;;5032575;28;20424;-65
2022/12/20 09:28:43;;;;;;;333.83;316.60;;;9.70;99.90;;;;;;5036022;28;20401;-65
2022/12/20 09:31:15;;;;;;;345.17;327.23;;;9.70;99.90;;;;;;5034318;28;20714;-65
2022/12/20 09:33:41;;;;;;;357.23;338.27;;;9.70;99.90;;;;;;5031094;28;20373;-65
2022/12/20 09:36:11;;;;;;;332.08;314.70;;;9.70;99.90;;;;;;5031518;28;20955;-65
2022/12/20 09:38:37;;;;;;;340.98;323.27;;;9.70;99.90;;;;;;5031623;28;20428;-65
2022/12/20 09:41:05;;;;;;;337.20;319.43;;;9.70;99.90;;;;;;5033652;28;20480;-65
2022/12/20 09:43:32;;;;;;;331.20;313.80;;;9.70;99.90;;;;;;5031278;28;20680;-65
2022/12/20 09:46:00;;;;;;;331.50;314.13;;;9.70;99.90;;;;;;5036798;28;20485;-65
2022/12/20 09:48:37;;;;;;;341.65;323.75;;;9.70;99.90;;;;;;5039165;28;20399;-65
2022/12/20 09:51:17;;;;;;;326.73;309.50;;;9.70;99.90;;;;;;5032945;28;20684;-65
2022/12/20 09:54:02;;;;;;;320.90;303.85;;;9.70;99.90;;;;;;5034086;28;20388;-65
2022/12/20 09:56:46;;;;;;;344.17;326.40;;;9.70;99.90;;;;;;5033348;28;20812;-65
2022/12/20 09:59:18;;;;;;;322.25;305.70;;;9.80;99.90;;;;;;5029168;28;20423;-65
2022/12/20 10:01:46;;;;;;;329.70;312.50;;;9.80;99.90;;;;;;5029722;28;20504;-65
2022/12/20 10:04:32;;;;;;;327.52;310.25;;;9.80;99.90;;;;;;5030281;28;20465;-65
2022/12/20 10:07:40;;;;;;;321.40;304.60;;;9.80;99.90;;;;;;5033653;28;20526;-65
2022/12/20 10:10:24;;;;;;;343.63;325.85;;;9.90;99.90;;;;;;5034684;28;20774;-65
2022/12/20 10:13:05;;;;;;;364.43;345.70;;;9.90;99.90;;;;;;5039417;28;20866;-65
2022/12/20 10:15:34;;;;;;;341.40;323.65;;;9.90;99.90;;;;;;5040804;28;20452;-65
2022/12/20 10:18:33;;;;;;;336.77;319.20;;;9.90;99.90;;;;;;5057002;28;20379;-65
2022/12/20 10:21:09;;;;;;;345.73;327.60;;;9.90;99.90;;;;;;5040605;28;20395;-65
2022/12/20 10:24:00;;;;;;;337.48;319.83;;;9.90;99.90;;;;;;5059789;28;20946;-65
2022/12/20 10:26:26;;;;;;;341.25;323.30;;;9.90;99.90;;;;;;5040018;28;20407;-66
2022/12/20 10:28:51;;;;;;;313.85;297.58;;;9.90;99.90;;;;;;5040477;28;20468;-65
2022/12/20 10:31:17;;;;;;;326.08;309.05;;;9.90;99.90;;;;;;5042409;28;20573;-65
2022/12/20 10:33:44;;;;;;;319.92;303.35;;;9.90;99.90;;;;;;5041612;28;20655;-65
2022/12/20 10:36:27;;;;;;;312.48;296.25;;;9.90;99.90;;;;;;5040775;28;20494;-65
2022/12/20 10:39:01;;;;;;;295.95;280.58;;;10.00;99.90;;;;;;5038229;28;20468;-65
2022/12/20 10:41:29;;;;;;;256.05;242.70;;;10.00;99.90;;;;;;5059304;28;20470;-65
2022/12/20 10:44:00;;;;;;;224.43;212.57;;;10.10;99.90;;;;;;5059631;28;20667;-65
2022/12/20 10:46:38;;;;;;;246.07;233.18;;;10.10;99.90;;;;;;5058450;28;20458;-65
2022/12/20 10:49:32;;;;;;;235.43;222.95;;;10.10;99.90;;;;;;5042307;28;20383;-65
2022/12/20 10:52:02;;;;;;;198.52;187.85;;;10.20;99.90;;;;;;5040129;28;20398;-65
2022/12/20 10:54:34;;;;;;;190.57;180.23;;;10.20;99.90;;;;;;5059206;28;20522;-65
2022/12/20 10:57:02;;;;;;;174.38;164.88;;;10.30;99.90;;;;;;5042368;28;20414;-65
2022/12/20 10:59:35;;;;;;;175.23;165.80;;;10.30;99.90;;;;;;5041606;28;20376;-65
2022/12/20 11:02:15;;;;;;;176.25;166.70;;;10.30;99.90;;;;;;5038768;28;20379;-65
2022/12/20 11:04:40;;;;;;;171.75;162.55;;;10.30;99.90;;;;;;5039159;28;20652;-65
2022/12/20 11:07:26;;;;;;;168.15;158.93;;;10.30;99.90;;;;;;5058931;28;20976;-65
2022/12/20 11:09:58;;;;;;;164.15;155.35;;;10.30;99.90;;;;;;5058076;28;20675;-65
2022/12/20 11:12:23;;;;;;;159.67;151.00;;;10.30;99.90;;;;;;5042848;28;20383;-64
2022/12/20 11:14:51;;;;;;;155.50;146.90;;;10.40;99.90;;;;;;5057431;28;20581;-64
2022/12/20 11:17:32;;;;;;;153.30;144.80;;;10.40;99.90;;;;;;5039228;28;20438;-64
2022/12/20 11:20:36;;;;;;;128.43;121.25;;;10.40;99.90;;;;;;5060298;28;20480;-64
2022/12/20 11:23:27;;;;;;;142.97;135.03;;;10.40;99.90;;;;;;5040726;28;20406;-64
2022/12/20 11:26:02;;;;;;;154.07;145.65;;;10.30;99.90;;;;;;5050519;28;20891;-65
2022/12/20 11:28:40;;;;;;;155.60;147.02;;;10.30;99.90;;;;;;5052899;28;20384;-66
2022/12/20 11:31:37;;;;;;;164.40;155.45;;;10.30;99.90;;;;;;5053289;28;20384;-66
2022/12/20 11:34:21;;;;;;;148.07;139.93;;;10.30;99.90;;;;;;5070336;28;20444;-66
2022/12/20 11:37:20;;;;;;;149.75;141.55;;;10.40;99.90;;;;;;5053136;28;20399;-66
2022/12/20 11:40:09;;;;;;;155.87;147.37;;;10.40;99.90;;;;;;5051577;28;20423;-56
2022/12/20 11:42:46;;;;;;;145.98;137.68;;;10.50;99.90;;;;;;5049685;28;20387;-58
2022/12/20 11:45:23;;;;;;;143.97;136.27;;;10.70;99.90;;;;;;5047948;28;20809;-66
2022/12/20 11:48:09;;;;;;;145.65;137.70;;;10.70;99.90;;;;;;5045839;28;20376;-66
2022/12/20 11:50:47;;;;;;;144.20;136.30;;;10.70;99.90;;;;;;4992113;28;20396;-66
2022/12/20 11:53:31;;;;;;;146.65;138.43;;;10.70;99.90;;;;;;5041736;28;20379;-65
2022/12/20 11:56:03;;;;;;;153.15;144.75;;;10.70;99.90;;;;;;5054856;28;20383;-66
2022/12/20 11:58:40;;;;;;;150.18;141.70;;;10.70;99.90;;;;;;5036487;28;20478;-65
2022/12/20 12:01:13;;;;;;;144.57;136.70;;;10.80;99.90;;;;;;5038780;28;20380;-66
2022/12/20 12:03:44;;;;;;;160.95;152.23;;;10.80;99.90;;;;;;5037874;28;20379;-66
2022/12/20 12:06:22;;;;;;;148.85;140.57;;;10.80;99.90;;;;;;5039448;28;20423;-66
2022/12/20 12:08:53;;;;;;;140.38;132.65;;;10.90;99.90;;;;;;5058553;28;20867;-66
2022/12/20 12:11:26;;;;;;;147.25;139.32;;;10.90;99.90;;;;;;5054739;28;20379;-65
2022/12/20 12:13:54;;;;;;;144.60;136.80;;;10.90;99.90;;;;;;5041592;28;20442;-66
2022/12/20 12:16:38;;;;;;;150.18;141.98;;;10.90;99.90;;;;;;5059438;28;20393;-65
2022/12/20 12:19:09;;;;;;;146.13;138.10;;;10.90;99.90;;;;;;5044445;28;21030;-66
2022/12/20 12:21:39;;;;;;;146.50;138.43;;;10.90;99.90;;;;;;5042148;28;20752;-66
2022/12/20 12:24:45;;;;;;;146.63;138.50;;;10.90;99.90;;;;;;5039870;28;20670;-66
2022/12/20 12:27:20;;;;;;;151.65;143.30;;;10.90;99.90;;;;;;4987085;28;21078;-66
2022/12/20 12:29:46;;;;;;;146.97;138.87;;;10.90;99.90;;;;;;5035685;28;20372;-65
2022/12/20 12:32:37;;;;;;;155.23;146.57;;;10.90;99.90;;;;;;5038736;28;20388;-66
2022/12/20 12:35:05;;;;;;;153.43;145.13;;;11.00;99.90;;;;;;5039325;28;20382;-65
2022/12/20 12:37:56;;;;;;;156.40;147.95;;;11.00;99.90;;;;;;5037568;28;20409;-65
2022/12/20 12:40:59;;;;;;;158.27;149.77;;;11.00;99.90;;;;;;5037407;28;20382;-66
2022/12/20 12:43:44;;;;;;;166.63;157.70;;;11.00;99.90;;;;;;5060597;28;20814;-66
2022/12/20 12:46:15;;;;;;;173.65;164.07;;;11.00;99.90;;;;;;5043094;28;20403;-65
2022/12/20 12:49:09;;;;;;;218.65;206.95;;;10.90;99.90;;;;;;5043452;28;20458;-66
2022/12/20 12:51:40;;;;;;;262.52;248.40;;;10.90;99.90;;;;;;5040883;28;20757;-66
2022/12/20 12:54:08;;;;;;;272.33;257.58;;;10.80;99.90;;;;;;5041562;28;20380;-66
2022/12/20 12:56:58;;;;;;;285.73;270.88;;;10.80;99.90;;;;;;5037483;28;20392;-66
2022/12/20 12:59:46;;;;;;;287.15;271.98;;;10.70;99.90;;;;;;5034230;28;20383;-66
2022/12/20 13:02:12;;;;;;;290.57;275.67;;;10.70;99.90;;;;;;5053576;28;20387;-66
2022/12/20 13:05:05;;;;;;;273.97;259.27;;;10.70;99.90;;;;;;5037004;28;20388;-66
2022/12/20 13:07:38;;;;;;;300.27;284.52;;;10.60;99.90;;;;;;5041962;28;20447;-66
2022/12/20 13:10:07;;;;;;;278.50;264.10;;;10.60;99.90;;;;;;5043604;28;20413;-66
2022/12/20 13:12:35;;;;;;;266.43;252.30;;;10.50;99.90;;;;;;5059763;28;20403;-66
2022/12/20 13:15:01;;;;;;;269.08;255.15;;;10.50;99.90;;;;;;5042162;28;21039;-66
2022/12/20 13:17:27;;;;;;;286.93;272.17;;;10.50;99.90;;;;;;5042850;28;20388;-66
2022/12/20 13:19:54;;;;;;;266.63;252.77;;;10.50;99.90;;;;;;5059479;28;20390;-66
2022/12/20 13:22:22;;;;;;;271.25;257.02;;;10.40;99.90;;;;;;5041058;28;20379;-66
2022/12/20 13:25:04;;;;;;;266.48;252.55;;;10.40;99.90;;;;;;5040329;28;20470;-66
2022/12/20 13:27:40;;;;;;;268.15;254.13;;;10.40;99.90;;;;;;5041397;28;20410;-66
2022/12/20 13:30:16;;;;;;;274.67;260.25;;;10.40;99.90;;;;;;5042947;28;20376;-66
2022/12/20 13:32:47;;;;;;;257.85;244.32;;;10.40;99.90;;;;;;5041235;28;20414;-66
2022/12/20 13:35:28;;;;;;;255.32;242.00;;;10.40;99.90;;;;;;5042421;28;20407;-66
2022/12/20 13:38:00;;;;;;;257.20;243.38;;;10.40;99.90;;;;;;5043223;28;20421;-66
2022/12/20 13:40:48;;;;;;;258.20;244.60;;;10.40;99.90;;;;;;5062226;28;20751;-67
2022/12/20 13:43:23;;;;;;;271.33;257.42;;;10.30;99.90;;;;;;5045886;28;20787;-66
2022/12/20 13:45:56;;;;;;;271.23;256.88;;;10.30;99.90;;;;;;5047323;28;20928;-66
2022/12/20 13:48:29;;;;;;;266.65;252.65;;;10.30;99.90;;;;;;5047544;28;20383;-66
2022/12/20 13:50:56;;;;;;;288.63;273.27;;;10.30;99.90;;;;;;5046676;28;20391;-66